THY2AX LTFM-LTBJ
Flight info
| Callsign | THY2AX |
|---|---|
| Flight time | N/A |
| Altitude | 29000 |
| Route | IVGUS1E/36 IVGUS UM19 OVZOK |
| Aircraft | A321/M-SDE3FGHIRWY/LB1 |
Departure
| Time | 2026-05-05 09:54 |
|---|---|
| Airport | İstanbul Airport (LTFM) |
Arrival
| Time | N/A |
|---|---|
| Airport | Adnan Menderes International Airport (LTBJ) |
| Time | Latitude | Longitude | Altitude | Speed | Heading |
|---|---|---|---|---|---|
| 2026-05-05 09:13 | 41.25730 | 28.74932 | 329 ft | 0 kts | 0° |
| 2026-05-05 09:13 | 41.25733 | 28.74932 | 330 ft | 0 kts | 0° |
| 2026-05-05 09:47 | 41.25726 | 28.74932 | 334 ft | 4 kts | 0° |
| 2026-05-05 09:47 | 41.25704 | 28.74932 | 329 ft | 4 kts | 0° |
| 2026-05-05 09:47 | 41.25677 | 28.74932 | 331 ft | 4 kts | 0° |
| 2026-05-05 09:47 | 41.25651 | 28.74931 | 330 ft | 4 kts | 0° |
| 2026-05-05 09:48 | 41.25643 | 28.74931 | 331 ft | 0 kts | 0° |
| 2026-05-05 09:50 | 41.25646 | 28.74938 | 332 ft | 2 kts | 52° |
| 2026-05-05 09:50 | 41.25646 | 28.75016 | 332 ft | 13 kts | 89° |
| 2026-05-05 09:50 | 41.25648 | 28.75137 | 330 ft | 14 kts | 89° |
| 2026-05-05 09:51 | 41.25649 | 28.75266 | 333 ft | 14 kts | 89° |
| 2026-05-05 09:51 | 41.25670 | 28.75391 | 331 ft | 14 kts | 39° |
| 2026-05-05 09:51 | 41.25764 | 28.75403 | 334 ft | 14 kts | 359° |
| 2026-05-05 09:51 | 41.25861 | 28.75400 | 329 ft | 13 kts | 359° |
| 2026-05-05 09:52 | 41.25954 | 28.75398 | 331 ft | 14 kts | 359° |
| 2026-05-05 09:52 | 41.26052 | 28.75396 | 332 ft | 14 kts | 359° |
| 2026-05-05 09:52 | 41.26155 | 28.75393 | 331 ft | 15 kts | 359° |
| 2026-05-05 09:52 | 41.26244 | 28.75438 | 333 ft | 15 kts | 70° |
| 2026-05-05 09:53 | 41.26249 | 28.75577 | 334 ft | 15 kts | 89° |
| 2026-05-05 09:53 | 41.26264 | 28.75662 | 330 ft | 6 kts | 14° |
| 2026-05-05 09:53 | 41.26371 | 28.75664 | 333 ft | 42 kts | 359° |
| 2026-05-05 09:53 | 41.26889 | 28.75655 | 331 ft | 107 kts | 359° |
| 2026-05-05 09:54 | 41.27811 | 28.75635 | 387 ft | 151 kts | 358° |
| 2026-05-05 09:54 | 41.28811 | 28.75611 | 1099 ft | 145 kts | 359° |
| 2026-05-05 09:54 | 41.29849 | 28.75704 | 1656 ft | 153 kts | 20° |
| 2026-05-05 09:54 | 41.30731 | 28.76637 | 1933 ft | 173 kts | 44° |
| 2026-05-05 09:55 | 41.31766 | 28.77629 | 2170 ft | 195 kts | 29° |
| 2026-05-05 09:55 | 41.33010 | 28.78571 | 2367 ft | 218 kts | 28° |
| 2026-05-05 09:55 | 41.34397 | 28.79605 | 2754 ft | 235 kts | 28° |
| 2026-05-05 09:55 | 41.35833 | 28.80674 | 3500 ft | 237 kts | 28° |
| 2026-05-05 09:56 | 41.37228 | 28.81870 | 4272 ft | 241 kts | 41° |
| 2026-05-05 09:56 | 41.38167 | 28.83717 | 5000 ft | 254 kts | 68° |
| 2026-05-05 09:56 | 41.38407 | 28.86107 | 5654 ft | 266 kts | 86° |
| 2026-05-05 09:56 | 41.38418 | 28.88594 | 6421 ft | 270 kts | 85° |
| 2026-05-05 09:57 | 41.38203 | 28.91106 | 7089 ft | 281 kts | 106° |
| 2026-05-05 09:57 | 41.37130 | 28.93318 | 7736 ft | 293 kts | 136° |
| 2026-05-05 09:57 | 41.35995 | 28.94314 | 8174 ft | 299 kts | 156° |
| 2026-05-05 09:57 | 41.33943 | 28.94808 | 8834 ft | 304 kts | 179° |
| 2026-05-05 09:58 | 41.31814 | 28.94823 | 9524 ft | 308 kts | 184° |
| 2026-05-05 09:58 | 41.29733 | 28.94160 | 10159 ft | 309 kts | 208° |
| 2026-05-05 09:58 | 41.27958 | 28.92511 | 10477 ft | 320 kts | 229° |
| 2026-05-05 09:58 | 41.26409 | 28.90261 | 10624 ft | 341 kts | 231° |
| 2026-05-05 09:59 | 41.24776 | 28.87849 | 10772 ft | 360 kts | 231° |
| 2026-05-05 09:59 | 41.23068 | 28.85336 | 11180 ft | 370 kts | 230° |
| 2026-05-05 09:59 | 41.21326 | 28.82792 | 11749 ft | 374 kts | 230° |
| 2026-05-05 09:59 | 41.19552 | 28.80217 | 12348 ft | 378 kts | 230° |
| 2026-05-05 10:00 | 41.17767 | 28.77634 | 12967 ft | 381 kts | 230° |
| 2026-05-05 10:00 | 41.15964 | 28.75030 | 13558 ft | 385 kts | 229° |
| 2026-05-05 10:00 | 41.14143 | 28.72399 | 14120 ft | 389 kts | 229° |
| 2026-05-05 10:00 | 41.12308 | 28.69752 | 14648 ft | 392 kts | 229° |
| 2026-05-05 10:01 | 41.10454 | 28.67085 | 15187 ft | 394 kts | 229° |
| 2026-05-05 10:01 | 41.08588 | 28.64405 | 15699 ft | 399 kts | 230° |
| 2026-05-05 10:01 | 41.06698 | 28.61688 | 16223 ft | 402 kts | 230° |
| 2026-05-05 10:01 | 41.04793 | 28.58951 | 16767 ft | 405 kts | 230° |
| 2026-05-05 10:02 | 41.02899 | 28.56227 | 17307 ft | 408 kts | 230° |
| 2026-05-05 10:02 | 41.00970 | 28.53450 | 17851 ft | 410 kts | 230° |
| 2026-05-05 10:02 | 40.99027 | 28.50653 | 18375 ft | 413 kts | 230° |
| 2026-05-05 10:02 | 40.97071 | 28.47843 | 18848 ft | 416 kts | 230° |
| 2026-05-05 10:03 | 40.95107 | 28.45025 | 19356 ft | 417 kts | 230° |
| 2026-05-05 10:03 | 40.93134 | 28.42200 | 19885 ft | 418 kts | 230° |
| 2026-05-05 10:03 | 40.91160 | 28.39380 | 20422 ft | 418 kts | 230° |
| 2026-05-05 10:03 | 40.89171 | 28.36548 | 20926 ft | 419 kts | 230° |
| 2026-05-05 10:04 | 40.87182 | 28.33719 | 21351 ft | 422 kts | 230° |
| 2026-05-05 10:04 | 40.85184 | 28.30874 | 21824 ft | 423 kts | 230° |
| 2026-05-05 10:04 | 40.83174 | 28.28010 | 22312 ft | 424 kts | 230° |
| 2026-05-05 10:04 | 40.81164 | 28.25152 | 22774 ft | 425 kts | 230° |
| 2026-05-05 10:05 | 40.79145 | 28.22286 | 23267 ft | 425 kts | 231° |
| 2026-05-05 10:05 | 40.77135 | 28.19429 | 23768 ft | 425 kts | 231° |
| 2026-05-05 10:05 | 40.75121 | 28.16568 | 24015 ft | 425 kts | 231° |
| 2026-05-05 10:05 | 40.73103 | 28.13706 | 24078 ft | 425 kts | 231° |
| 2026-05-05 10:06 | 40.71118 | 28.10892 | 24098 ft | 425 kts | 231° |
| 2026-05-05 10:06 | 40.69108 | 28.08045 | 24097 ft | 424 kts | 231° |
| 2026-05-05 10:06 | 40.67093 | 28.05196 | 24084 ft | 426 kts | 230° |
| 2026-05-05 10:06 | 40.65065 | 28.02335 | 24092 ft | 426 kts | 231° |
| 2026-05-05 10:07 | 40.63046 | 27.99490 | 24096 ft | 425 kts | 231° |
| 2026-05-05 10:07 | 40.61023 | 27.96640 | 24095 ft | 425 kts | 231° |
| 2026-05-05 10:07 | 40.59006 | 27.93802 | 24098 ft | 425 kts | 231° |
| 2026-05-05 10:07 | 40.56980 | 27.90957 | 24098 ft | 425 kts | 231° |
| 2026-05-05 10:08 | 40.54960 | 27.88121 | 24101 ft | 425 kts | 231° |
| 2026-05-05 10:08 | 40.52936 | 27.85285 | 24100 ft | 425 kts | 231° |
| 2026-05-05 10:08 | 40.50911 | 27.82445 | 24095 ft | 424 kts | 231° |
| 2026-05-05 10:08 | 40.48897 | 27.79621 | 24101 ft | 424 kts | 231° |
| 2026-05-05 10:09 | 40.46885 | 27.76802 | 24098 ft | 423 kts | 231° |
| 2026-05-05 10:09 | 40.44895 | 27.74015 | 24097 ft | 423 kts | 231° |
| 2026-05-05 10:09 | 40.42854 | 27.71165 | 24097 ft | 423 kts | 231° |
| 2026-05-05 10:09 | 40.40833 | 27.68350 | 24098 ft | 423 kts | 231° |
| 2026-05-05 10:10 | 40.38791 | 27.65631 | 24095 ft | 426 kts | 226° |
| 2026-05-05 10:10 | 40.36444 | 27.63236 | 24098 ft | 429 kts | 218° |
| 2026-05-05 10:10 | 40.33836 | 27.61313 | 24100 ft | 433 kts | 209° |
| 2026-05-05 10:10 | 40.30997 | 27.59918 | 24099 ft | 439 kts | 199° |
| 2026-05-05 10:11 | 40.27983 | 27.59159 | 24076 ft | 442 kts | 192° |
| 2026-05-05 10:11 | 40.24939 | 27.58568 | 24098 ft | 443 kts | 193° |
| 2026-05-05 10:11 | 40.21895 | 27.57952 | 24062 ft | 440 kts | 193° |
| 2026-05-05 10:11 | 40.18905 | 27.57349 | 23808 ft | 429 kts | 193° |
| 2026-05-05 10:12 | 40.15990 | 27.56774 | 23557 ft | 419 kts | 193° |
| 2026-05-05 10:12 | 40.13123 | 27.56215 | 23283 ft | 414 kts | 192° |
| 2026-05-05 10:12 | 40.10302 | 27.55669 | 23010 ft | 412 kts | 192° |
| 2026-05-05 10:12 | 40.07442 | 27.55117 | 22731 ft | 411 kts | 192° |
| 2026-05-05 10:13 | 40.04616 | 27.54576 | 22455 ft | 410 kts | 192° |
| 2026-05-05 10:13 | 40.01799 | 27.54040 | 22209 ft | 408 kts | 192° |
| 2026-05-05 10:13 | 39.98994 | 27.53509 | 21935 ft | 407 kts | 191° |
| 2026-05-05 10:13 | 39.96196 | 27.52976 | 21669 ft | 405 kts | 191° |
| 2026-05-05 10:14 | 39.93407 | 27.52442 | 21416 ft | 404 kts | 191° |
| 2026-05-05 10:14 | 39.90625 | 27.51910 | 21160 ft | 403 kts | 191° |
| 2026-05-05 10:14 | 39.87890 | 27.51385 | 20910 ft | 402 kts | 191° |
| 2026-05-05 10:14 | 39.85124 | 27.50857 | 20660 ft | 401 kts | 191° |
| 2026-05-05 10:15 | 39.82362 | 27.50332 | 20410 ft | 400 kts | 191° |
| 2026-05-05 10:15 | 39.79605 | 27.49811 | 20158 ft | 400 kts | 190° |
| 2026-05-05 10:15 | 39.76856 | 27.49293 | 19912 ft | 399 kts | 190° |
| 2026-05-05 10:15 | 39.74118 | 27.48772 | 19669 ft | 397 kts | 190° |
| 2026-05-05 10:16 | 39.71384 | 27.48254 | 19429 ft | 397 kts | 190° |
| 2026-05-05 10:16 | 39.68655 | 27.47740 | 19189 ft | 396 kts | 190° |
| 2026-05-05 10:16 | 39.65929 | 27.47229 | 18945 ft | 394 kts | 189° |
| 2026-05-05 10:16 | 39.63216 | 27.46720 | 18715 ft | 393 kts | 189° |
| 2026-05-05 10:17 | 39.60510 | 27.46208 | 18467 ft | 394 kts | 190° |
| 2026-05-05 10:17 | 39.57799 | 27.45694 | 18212 ft | 393 kts | 190° |
| 2026-05-05 10:17 | 39.55092 | 27.45184 | 17950 ft | 392 kts | 189° |
| 2026-05-05 10:17 | 39.52390 | 27.44676 | 17675 ft | 391 kts | 190° |
| 2026-05-05 10:18 | 39.49739 | 27.44176 | 17411 ft | 390 kts | 189° |
| 2026-05-05 10:18 | 39.47058 | 27.43672 | 17163 ft | 388 kts | 189° |
| 2026-05-05 10:18 | 39.44389 | 27.43172 | 17069 ft | 387 kts | 189° |
| 2026-05-05 10:18 | 39.41720 | 27.42679 | 17088 ft | 387 kts | 189° |
| 2026-05-05 10:19 | 39.39053 | 27.42187 | 17088 ft | 388 kts | 189° |
| 2026-05-05 10:19 | 39.36413 | 27.41505 | 17086 ft | 386 kts | 197° |
| 2026-05-05 10:19 | 39.33825 | 27.40535 | 17089 ft | 386 kts | 198° |
| 2026-05-05 10:19 | 39.31240 | 27.39559 | 17086 ft | 386 kts | 198° |
| 2026-05-05 10:20 | 39.28662 | 27.38588 | 17084 ft | 386 kts | 198° |
| 2026-05-05 10:20 | 39.26089 | 27.37623 | 17082 ft | 386 kts | 198° |
| 2026-05-05 10:20 | 39.23503 | 27.36659 | 17081 ft | 386 kts | 198° |
| 2026-05-05 10:20 | 39.20917 | 27.35697 | 17075 ft | 387 kts | 198° |
| 2026-05-05 10:21 | 39.18332 | 27.34732 | 16818 ft | 386 kts | 198° |
| 2026-05-05 10:21 | 39.15760 | 27.33768 | 16561 ft | 384 kts | 198° |
| 2026-05-05 10:21 | 39.13233 | 27.32824 | 16310 ft | 383 kts | 198° |
| 2026-05-05 10:21 | 39.10678 | 27.31874 | 16057 ft | 381 kts | 198° |
| 2026-05-05 10:22 | 39.08132 | 27.30932 | 15803 ft | 380 kts | 198° |
| 2026-05-05 10:22 | 39.05563 | 27.29981 | 15540 ft | 379 kts | 198° |